sensor_id;sensor_type;location;lat;lon;timestamp;pressure;altitude;pressure_sealevel;temperature;humidity
52983;BME280;48698;45.736;13.926;2023-04-02T00:01:05;96764.28;;;6.67;100.00
52983;BME280;48698;45.736;13.926;2023-04-02T00:11:35;96712.38;;;6.14;100.00
52983;BME280;48698;45.736;13.926;2023-04-02T00:16:38;96765.34;;;6.46;100.00
52983;BME280;48698;45.736;13.926;2023-04-02T00:21:43;96760.53;;;6.54;100.00
52983;BME280;48698;45.736;13.926;2023-04-02T00:26:50;96763.56;;;6.63;100.00
52983;BME280;48698;45.736;13.926;2023-04-02T00:32:08;96770.84;;;6.41;100.00
52983;BME280;48698;45.736;13.926;2023-04-02T00:37:18;96551.81;;;4.84;100.00
52983;BME280;48698;45.736;13.926;2023-04-02T00:42:28;96620.81;;;5.46;100.00
52983;BME280;48698;45.736;13.926;2023-04-02T00:47:36;96395.38;;;4.18;100.00
52983;BME280;48698;45.736;13.926;2023-04-02T00:52:42;96738.53;;;5.63;100.00
52983;BME280;48698;45.736;13.926;2023-04-02T00:57:47;96774.16;;;6.09;100.00
52983;BME280;48698;45.736;13.926;2023-04-02T01:03:24;96740.06;;;6.06;100.00
52983;BME280;48698;45.736;13.926;2023-04-02T01:08:57;96776.34;;;6.18;100.00
52983;BME280;48698;45.736;13.926;2023-04-02T01:24:48;96665.66;;;5.81;100.00
52983;BME280;48698;45.736;13.926;2023-04-02T01:29:53;96720.84;;;5.84;100.00
52983;BME280;48698;45.736;13.926;2023-04-02T01:34:58;96772.50;;;6.25;100.00
52983;BME280;48698;45.736;13.926;2023-04-02T01:45:40;96677.34;;;6.12;100.00
52983;BME280;48698;45.736;13.926;2023-04-02T01:50:55;96668.16;;;6.38;100.00
52983;BME280;48698;45.736;13.926;2023-04-02T01:56:00;96559.34;;;5.64;100.00
52983;BME280;48698;45.736;13.926;2023-04-02T02:01:05;96770.06;;;6.92;100.00
52983;BME280;48698;45.736;13.926;2023-04-02T02:06:15;96773.78;;;6.88;100.00
52983;BME280;48698;45.736;13.926;2023-04-02T02:11:22;96733.16;;;6.73;100.00
52983;BME280;48698;45.736;13.926;2023-04-02T02:16:27;96770.13;;;6.91;100.00
52983;BME280;48698;45.736;13.926;2023-04-02T02:21:42;96773.53;;;6.93;100.00
52983;BME280;48698;45.736;13.926;2023-04-02T02:26:48;96731.28;;;6.41;100.00
52983;BME280;48698;45.736;13.926;2023-04-02T02:32:04;96643.75;;;5.99;100.00
52983;BME280;48698;45.736;13.926;2023-04-02T02:37:21;96765.34;;;6.63;100.00
52983;BME280;48698;45.736;13.926;2023-04-02T02:42:30;96600.50;;;6.03;100.00
52983;BME280;48698;45.736;13.926;2023-04-02T02:47:35;96702.84;;;8.12;100.00
52983;BME280;48698;45.736;13.926;2023-04-02T02:52:45;96665.13;;;8.24;100.00
52983;BME280;48698;45.736;13.926;2023-04-02T02:57:57;96422.00;;;6.86;100.00
52983;BME280;48698;45.736;13.926;2023-04-02T03:03:05;96751.34;;;8.73;100.00
52983;BME280;48698;45.736;13.926;2023-04-02T03:08:18;96669.03;;;8.32;100.00
52983;BME280;48698;45.736;13.926;2023-04-02T03:13:28;96701.00;;;8.59;100.00
52983;BME280;48698;45.736;13.926;2023-04-02T03:23:51;96709.22;;;8.39;100.00
52983;BME280;48698;45.736;13.926;2023-04-02T03:29:03;96717.00;;;8.11;100.00
52983;BME280;48698;45.736;13.926;2023-04-02T03:34:17;96708.97;;;7.97;100.00
52983;BME280;48698;45.736;13.926;2023-04-02T03:39:46;96765.41;;;7.96;100.00
52983;BME280;48698;45.736;13.926;2023-04-02T03:55:28;96771.84;;;7.92;100.00
52983;BME280;48698;45.736;13.926;2023-04-02T04:00:47;96784.88;;;7.95;100.00
52983;BME280;48698;45.736;13.926;2023-04-02T04:06:10;96767.38;;;7.26;100.00
52983;BME280;48698;45.736;13.926;2023-04-02T04:11:20;96802.22;;;7.67;100.00
52983;BME280;48698;45.736;13.926;2023-04-02T04:22:18;96764.94;;;7.56;100.00
52983;BME280;48698;45.736;13.926;2023-04-02T04:27:27;96772.69;;;7.59;100.00
52983;BME280;48698;45.736;13.926;2023-04-02T04:33:01;96809.84;;;7.56;100.00
52983;BME280;48698;45.736;13.926;2023-04-02T04:38:16;96827.13;;;6.95;100.00
52983;BME280;48698;45.736;13.926;2023-04-02T04:43:40;96755.72;;;6.09;100.00
52983;BME280;48698;45.736;13.926;2023-04-02T04:48:53;96809.66;;;6.56;100.00
52983;BME280;48698;45.736;13.926;2023-04-02T04:53:59;96820.19;;;6.56;100.00
52983;BME280;48698;45.736;13.926;2023-04-02T04:59:11;96847.16;;;6.99;100.00
52983;BME280;48698;45.736;13.926;2023-04-02T05:04:33;96839.88;;;7.88;100.00
52983;BME280;48698;45.736;13.926;2023-04-02T05:15:10;96829.66;;;8.46;100.00
52983;BME280;48698;45.736;13.926;2023-04-02T05:25:29;96827.50;;;8.84;100.00
52983;BME280;48698;45.736;13.926;2023-04-02T05:30:49;96826.91;;;8.95;100.00
52983;BME280;48698;45.736;13.926;2023-04-02T05:41:01;96831.69;;;8.88;100.00
52983;BME280;48698;45.736;13.926;2023-04-02T05:46:19;96682.53;;;7.97;100.00
52983;BME280;48698;45.736;13.926;2023-04-02T05:51:42;96853.38;;;8.95;100.00
52983;BME280;48698;45.736;13.926;2023-04-02T05:56:52;96736.47;;;8.41;100.00
52983;BME280;48698;45.736;13.926;2023-04-02T06:02:09;96807.03;;;9.02;100.00
52983;BME280;48698;45.736;13.926;2023-04-02T06:07:21;96602.25;;;7.68;100.00
52983;BME280;48698;45.736;13.926;2023-04-02T06:12:54;96826.25;;;9.35;100.00
52983;BME280;48698;45.736;13.926;2023-04-02T06:18:16;96880.72;;;9.70;100.00
52983;BME280;48698;45.736;13.926;2023-04-02T06:23:38;96883.19;;;9.88;100.00
52983;BME280;48698;45.736;13.926;2023-04-02T06:29:06;96889.75;;;10.10;100.00
52983;BME280;48698;45.736;13.926;2023-04-02T06:34:14;96896.91;;;10.24;100.00
52983;BME280;48698;45.736;13.926;2023-04-02T06:39:21;96818.50;;;9.90;100.00
52983;BME280;48698;45.736;13.926;2023-04-02T06:44:26;96688.47;;;9.07;100.00
52983;BME280;48698;45.736;13.926;2023-04-02T06:49:44;96701.34;;;9.27;100.00
52983;BME280;48698;45.736;13.926;2023-04-02T06:54:48;96720.88;;;9.54;100.00
52983;BME280;48698;45.736;13.926;2023-04-02T06:59:58;96890.69;;;10.80;100.00
52983;BME280;48698;45.736;13.926;2023-04-02T07:05:03;96882.16;;;10.75;100.00
52983;BME280;48698;45.736;13.926;2023-04-02T07:10:07;96829.72;;;10.64;100.00
52983;BME280;48698;45.736;13.926;2023-04-02T07:15:14;96921.69;;;11.20;100.00
52983;BME280;48698;45.736;13.926;2023-04-02T07:20:32;96951.03;;;11.60;100.00
52983;BME280;48698;45.736;13.926;2023-04-02T07:25:36;96705.56;;;10.28;100.00
52983;BME280;48698;45.736;13.926;2023-04-02T07:30:40;96919.91;;;11.74;100.00
52983;BME280;48698;45.736;13.926;2023-04-02T07:35:43;96946.91;;;12.08;100.00
52983;BME280;48698;45.736;13.926;2023-04-02T07:40:46;96781.81;;;10.80;100.00
52983;BME280;48698;45.736;13.926;2023-04-02T07:45:59;96839.97;;;11.63;100.00
52983;BME280;48698;45.736;13.926;2023-04-02T07:51:02;96915.81;;;12.33;100.00
52983;BME280;48698;45.736;13.926;2023-04-02T07:56:07;96963.00;;;12.82;100.00
52983;BME280;48698;45.736;13.926;2023-04-02T08:01:25;96946.25;;;12.92;100.00
52983;BME280;48698;45.736;13.926;2023-04-02T08:06:28;96972.97;;;13.04;100.00
52983;BME280;48698;45.736;13.926;2023-04-02T08:11:31;96905.56;;;12.78;100.00
52983;BME280;48698;45.736;13.926;2023-04-02T08:16:50;96969.97;;;13.33;100.00
52983;BME280;48698;45.736;13.926;2023-04-02T08:22:03;96727.19;;;12.40;100.00
52983;BME280;48698;45.736;13.926;2023-04-02T08:27:06;96867.75;;;13.33;100.00
52983;BME280;48698;45.736;13.926;2023-04-02T08:32:11;96832.19;;;13.45;100.00
52983;BME280;48698;45.736;13.926;2023-04-02T08:37:17;96978.97;;;14.49;100.00
52983;BME280;48698;45.736;13.926;2023-04-02T08:47:55;96938.06;;;14.49;100.00
52983;BME280;48698;45.736;13.926;2023-04-02T08:53:01;96881.78;;;14.17;100.00
52983;BME280;48698;45.736;13.926;2023-04-02T09:03:40;96989.50;;;14.75;100.00
52983;BME280;48698;45.736;13.926;2023-04-02T09:08:46;96907.97;;;14.12;100.00
52983;BME280;48698;45.736;13.926;2023-04-02T09:13:55;96991.41;;;14.73;100.00
52983;BME280;48698;45.736;13.926;2023-04-02T09:18:59;96953.06;;;14.28;100.00
52983;BME280;48698;45.736;13.926;2023-04-02T09:24:03;96913.13;;;13.91;100.00
52983;BME280;48698;45.736;13.926;2023-04-02T09:29:42;96996.53;;;14.65;100.00
52983;BME280;48698;45.736;13.926;2023-04-02T09:34:46;96735.38;;;13.21;100.00
52983;BME280;48698;45.736;13.926;2023-04-02T09:39:50;96935.41;;;14.60;100.00
52983;BME280;48698;45.736;13.926;2023-04-02T09:45:20;96936.13;;;14.95;96.83
52983;BME280;48698;45.736;13.926;2023-04-02T09:50:33;96980.25;;;15.34;89.44
52983;BME280;48698;45.736;13.926;2023-04-02T09:55:36;96966.59;;;16.44;91.18
52983;BME280;48698;45.736;13.926;2023-04-02T10:00:44;96790.03;;;15.69;82.00
52983;BME280;48698;45.736;13.926;2023-04-02T10:06:12;96955.66;;;17.68;81.79
52983;BME280;48698;45.736;13.926;2023-04-02T10:11:31;96998.59;;;17.59;74.70
52983;BME280;48698;45.736;13.926;2023-04-02T11:56:42;96905.72;;;16.46;70.08
52983;BME280;48698;45.736;13.926;2023-04-02T12:12:32;96962.06;;;18.25;72.82
52983;BME280;48698;45.736;13.926;2023-04-02T12:17:39;96957.09;;;18.49;64.83
52983;BME280;48698;45.736;13.926;2023-04-02T12:22:55;96960.88;;;18.85;65.12
52983;BME280;48698;45.736;13.926;2023-04-02T12:33:31;96954.06;;;19.27;67.88
52983;BME280;48698;45.736;13.926;2023-04-02T12:38:43;96759.53;;;18.26;66.10
52983;BME280;48698;45.736;13.926;2023-04-02T12:43:46;96893.16;;;19.53;67.74
52983;BME280;48698;45.736;13.926;2023-04-02T12:49:05;96902.00;;;19.19;64.66
52983;BME280;48698;45.736;13.926;2023-04-02T12:54:14;96820.84;;;17.74;68.00
52983;BME280;48698;45.736;13.926;2023-04-02T12:59:30;96866.63;;;17.14;65.46
52983;BME280;48698;45.736;13.926;2023-04-02T13:04:46;96936.75;;;17.79;64.65
52983;BME280;48698;45.736;13.926;2023-04-02T13:10:05;96937.84;;;17.77;63.10
52983;BME280;48698;45.736;13.926;2023-04-02T13:15:34;96734.88;;;16.78;64.19
52983;BME280;48698;45.736;13.926;2023-04-02T13:20:54;96868.31;;;17.05;61.42
52983;BME280;48698;45.736;13.926;2023-04-02T13:26:01;96763.78;;;15.11;85.31
52983;BME280;48698;45.736;13.926;2023-04-02T13:31:15;96955.34;;;16.09;100.00
52983;BME280;48698;45.736;13.926;2023-04-02T13:36:21;96843.00;;;15.23;100.00
52983;BME280;48698;45.736;13.926;2023-04-02T13:41:27;96957.22;;;15.65;100.00
52983;BME280;48698;45.736;13.926;2023-04-02T13:46:32;96782.16;;;13.60;100.00
52983;BME280;48698;45.736;13.926;2023-04-02T13:51:49;96973.53;;;14.51;100.00
52983;BME280;48698;45.736;13.926;2023-04-02T13:56:54;96949.34;;;14.53;100.00
52983;BME280;48698;45.736;13.926;2023-04-02T14:02:02;96943.81;;;14.78;100.00
52983;BME280;48698;45.736;13.926;2023-04-02T14:07:30;96966.28;;;14.97;100.00
52983;BME280;48698;45.736;13.926;2023-04-02T14:13:14;96968.94;;;14.64;100.00
52983;BME280;48698;45.736;13.926;2023-04-02T14:18:36;96959.25;;;14.28;100.00
52983;BME280;48698;45.736;13.926;2023-04-02T14:29:22;96898.38;;;13.98;100.00
52983;BME280;48698;45.736;13.926;2023-04-02T14:45:49;96871.13;;;14.62;100.00
52983;BME280;48698;45.736;13.926;2023-04-02T14:51:25;96958.84;;;15.12;100.00
52983;BME280;48698;45.736;13.926;2023-04-02T14:56:37;96959.84;;;15.87;100.00
52983;BME280;48698;45.736;13.926;2023-04-02T15:02:00;96680.41;;;13.53;100.00
52983;BME280;48698;45.736;13.926;2023-04-02T15:07:13;96898.28;;;14.22;100.00
52983;BME280;48698;45.736;13.926;2023-04-02T15:12:29;96973.56;;;14.73;100.00
52983;BME280;48698;45.736;13.926;2023-04-02T15:17:34;96919.63;;;14.90;100.00
52983;BME280;48698;45.736;13.926;2023-04-02T15:22:51;96710.66;;;13.19;100.00
52983;BME280;48698;45.736;13.926;2023-04-02T15:28:09;96983.25;;;14.63;100.00
52983;BME280;48698;45.736;13.926;2023-04-02T15:33:37;96987.16;;;14.70;100.00
52983;BME280;48698;45.736;13.926;2023-04-02T15:38:49;96847.81;;;13.73;100.00
52983;BME280;48698;45.736;13.926;2023-04-02T15:44:08;96986.69;;;15.10;100.00
52983;BME280;48698;45.736;13.926;2023-04-02T15:49:41;96991.19;;;14.65;100.00
52983;BME280;48698;45.736;13.926;2023-04-02T15:54:52;97027.59;;;14.55;100.00
52983;BME280;48698;45.736;13.926;2023-04-02T16:00:13;96928.88;;;13.60;100.00
52983;BME280;48698;45.736;13.926;2023-04-02T16:10:40;97051.13;;;13.78;100.00
52983;BME280;48698;45.736;13.926;2023-04-02T16:21:00;97027.31;;;11.86;100.00
52983;BME280;48698;45.736;13.926;2023-04-02T16:32:00;96948.75;;;10.72;100.00
52983;BME280;48698;45.736;13.926;2023-04-02T16:37:30;97075.13;;;11.73;100.00
52983;BME280;48698;45.736;13.926;2023-04-02T16:43:06;97060.56;;;11.24;100.00
52983;BME280;48698;45.736;13.926;2023-04-02T16:48:44;97063.25;;;10.96;100.00
52983;BME280;48698;45.736;13.926;2023-04-02T16:59:25;97151.44;;;11.73;100.00
52983;BME280;48698;45.736;13.926;2023-04-02T17:04:55;97152.47;;;11.56;100.00
52983;BME280;48698;45.736;13.926;2023-04-02T17:15:38;97087.97;;;10.54;100.00
52983;BME280;48698;45.736;13.926;2023-04-02T17:20:42;97118.34;;;10.34;100.00
52983;BME280;48698;45.736;13.926;2023-04-02T17:25:54;97042.53;;;9.99;100.00
52983;BME280;48698;45.736;13.926;2023-04-02T18:05:05;97163.34;;;10.95;100.00
52983;BME280;48698;45.736;13.926;2023-04-02T18:10:41;97170.94;;;11.01;100.00
52983;BME280;48698;45.736;13.926;2023-04-02T18:16:12;97183.53;;;10.83;100.00
52983;BME280;48698;45.736;13.926;2023-04-02T18:21:23;97192.25;;;10.85;100.00
52983;BME280;48698;45.736;13.926;2023-04-02T18:27:05;97209.88;;;10.27;100.00
52983;BME280;48698;45.736;13.926;2023-04-02T18:32:32;97215.41;;;10.07;100.00
52983;BME280;48698;45.736;13.926;2023-04-02T18:38:06;97220.25;;;9.99;100.00
52983;BME280;48698;45.736;13.926;2023-04-02T18:43:24;97227.28;;;9.51;100.00
52983;BME280;48698;45.736;13.926;2023-04-02T18:54:21;97233.16;;;9.58;100.00
52983;BME280;48698;45.736;13.926;2023-04-02T18:59:43;97192.28;;;10.09;100.00
52983;BME280;48698;45.736;13.926;2023-04-02T19:04:57;97194.28;;;10.66;100.00
52983;BME280;48698;45.736;13.926;2023-04-02T19:10:28;97187.75;;;9.79;100.00
52983;BME280;48698;45.736;13.926;2023-04-02T19:21:25;97255.75;;;8.98;100.00
52983;BME280;48698;45.736;13.926;2023-04-02T19:26:58;97097.78;;;7.58;100.00
52983;BME280;48698;45.736;13.926;2023-04-02T19:37:37;97304.66;;;9.42;100.00
52983;BME280;48698;45.736;13.926;2023-04-02T19:42:41;97306.94;;;9.65;100.00
52983;BME280;48698;45.736;13.926;2023-04-02T19:47:45;97205.56;;;9.77;100.00
52983;BME280;48698;45.736;13.926;2023-04-02T19:52:47;97210.03;;;10.24;100.00
52983;BME280;48698;45.736;13.926;2023-04-02T19:57:50;97284.56;;;11.12;100.00
52983;BME280;48698;45.736;13.926;2023-04-02T20:03:09;97220.31;;;11.05;100.00
52983;BME280;48698;45.736;13.926;2023-04-02T20:08:11;97282.00;;;11.54;100.00
52983;BME280;48698;45.736;13.926;2023-04-02T20:13:15;97094.09;;;10.40;100.00
52983;BME280;48698;45.736;13.926;2023-04-02T20:18:17;97031.50;;;10.36;100.00
52983;BME280;48698;45.736;13.926;2023-04-02T20:23:25;97271.25;;;11.85;100.00
52983;BME280;48698;45.736;13.926;2023-04-02T20:28:29;97271.13;;;11.87;100.00
52983;BME280;48698;45.736;13.926;2023-04-02T20:33:32;97232.81;;;11.61;100.00
52983;BME280;48698;45.736;13.926;2023-04-02T20:38:35;97015.06;;;10.15;100.00
52983;BME280;48698;45.736;13.926;2023-04-02T20:43:38;97007.72;;;9.59;100.00
52983;BME280;48698;45.736;13.926;2023-04-02T20:48:44;97260.47;;;10.85;100.00
52983;BME280;48698;45.736;13.926;2023-04-02T20:53:49;97154.03;;;10.13;100.00
52983;BME280;48698;45.736;13.926;2023-04-02T20:58:52;97306.69;;;11.12;100.00
52983;BME280;48698;45.736;13.926;2023-04-02T21:03:57;97141.03;;;9.93;100.00
52983;BME280;48698;45.736;13.926;2023-04-02T21:09:14;97235.16;;;10.48;100.00
52983;BME280;48698;45.736;13.926;2023-04-02T21:14:27;97187.00;;;9.77;100.00
52983;BME280;48698;45.736;13.926;2023-04-02T21:19:34;97309.16;;;10.70;100.00
52983;BME280;48698;45.736;13.926;2023-04-02T21:24:37;97312.00;;;10.51;100.00
52983;BME280;48698;45.736;13.926;2023-04-02T21:29:39;97231.72;;;10.62;100.00
52983;BME280;48698;45.736;13.926;2023-04-02T21:34:42;97306.09;;;11.07;100.00
52983;BME280;48698;45.736;13.926;2023-04-02T21:39:45;97320.22;;;11.08;100.00
52983;BME280;48698;45.736;13.926;2023-04-02T21:44:48;97277.63;;;10.79;100.00
52983;BME280;48698;45.736;13.926;2023-04-02T21:49:51;97111.38;;;9.70;100.00
52983;BME280;48698;45.736;13.926;2023-04-02T21:54:54;97222.09;;;10.29;100.00
52983;BME280;48698;45.736;13.926;2023-04-02T21:59:57;97133.34;;;9.57;100.00
52983;BME280;48698;45.736;13.926;2023-04-02T22:05:02;97284.25;;;10.41;100.00
52983;BME280;48698;45.736;13.926;2023-04-02T22:10:05;97119.63;;;9.17;100.00
52983;BME280;48698;45.736;13.926;2023-04-02T22:15:10;97279.19;;;10.21;100.00
52983;BME280;48698;45.736;13.926;2023-04-02T22:20:13;97180.38;;;9.53;100.00
52983;BME280;48698;45.736;13.926;2023-04-02T22:25:16;97246.69;;;9.84;100.00
52983;BME280;48698;45.736;13.926;2023-04-02T22:30:18;97300.13;;;10.10;100.00
52983;BME280;48698;45.736;13.926;2023-04-02T22:35:21;97334.59;;;10.27;100.00
52983;BME280;48698;45.736;13.926;2023-04-02T22:40:24;97352.00;;;10.48;100.00
52983;BME280;48698;45.736;13.926;2023-04-02T22:45:27;97267.59;;;9.91;100.00
52983;BME280;48698;45.736;13.926;2023-04-02T22:50:40;97154.78;;;9.04;100.00
52983;BME280;48698;45.736;13.926;2023-04-02T22:55:43;97132.53;;;8.91;100.00
52983;BME280;48698;45.736;13.926;2023-04-02T23:00:46;97324.44;;;9.85;100.00
52983;BME280;48698;45.736;13.926;2023-04-02T23:06:00;97357.72;;;10.08;100.00
52983;BME280;48698;45.736;13.926;2023-04-02T23:11:08;97385.81;;;10.12;100.00
52983;BME280;48698;45.736;13.926;2023-04-02T23:16:12;97385.59;;;9.99;100.00
52983;BME280;48698;45.736;13.926;2023-04-02T23:21:16;97112.50;;;8.35;100.00
52983;BME280;48698;45.736;13.926;2023-04-02T23:26:23;97387.13;;;9.88;100.00
52983;BME280;48698;45.736;13.926;2023-04-02T23:31:26;97249.50;;;8.81;100.00
52983;BME280;48698;45.736;13.926;2023-04-02T23:36:31;97382.22;;;9.63;100.00
52983;BME280;48698;45.736;13.926;2023-04-02T23:41:36;97346.81;;;9.29;100.00
52983;BME280;48698;45.736;13.926;2023-04-02T23:46:39;97343.22;;;8.96;100.00
52983;BME280;48698;45.736;13.926;2023-04-02T23:51:43;97365.28;;;9.14;100.00
52983;BME280;48698;45.736;13.926;2023-04-02T23:56:46;97381.81;;;9.19;100.00
